Time;durP1;ratioP1;P1;durP2;ratioP2;P2;SDS_P1;SDS_P2;PMS_P1;PMS_P2;Temp;Humidity;BMP_temperature;BMP_pressure;BME280_temperature;BME280_humidity;BME280_pressure;Samples;Min_cycle;Max_cycle;Signal;HPM_P1;HPM_P2
2023/06/15 00:01:55;;;;;;;24.15;22.25;;;;;;;17.46;63.34;100336.75;5014250;28;96826;-76
2023/06/15 00:04:21;;;;;;;25.88;23.75;;;;;;;17.46;63.10;100339.41;5012688;28;98802;-76
2023/06/15 00:06:46;;;;;;;24.20;22.33;;;;;;;17.45;63.10;100333.22;4996159;28;98439;-76
2023/06/15 00:09:12;;;;;;;27.70;22.92;;;;;;;17.47;63.32;100335.78;5013884;28;96939;-76
2023/06/15 00:11:38;;;;;;;24.38;22.45;;;;;;;17.46;62.99;100334.09;5014765;28;96733;-77
2023/06/15 00:14:03;;;;;;;25.67;23.50;;;;;;;17.43;62.95;100322.72;5013423;28;98690;-76
2023/06/15 00:16:31;;;;;;;24.63;22.35;;;;;;;17.43;62.80;100320.06;5013733;28;98894;-76
2023/06/15 00:18:57;;;;;;;25.00;22.60;;;;;;;17.37;63.00;100320.44;5012477;28;97650;-76
2023/06/15 00:21:24;;;;;;;25.60;23.67;;;;;;;17.37;63.02;100324.91;5013692;28;96905;-76
2023/06/15 00:23:50;;;;;;;26.48;23.92;;;;;;;17.27;63.11;100311.34;5012977;28;98758;-76
2023/06/15 00:26:15;;;;;;;23.40;21.60;;;;;;;17.30;63.13;100315.59;5013306;28;98547;-76
2023/06/15 00:28:44;;;;;;;23.25;21.27;;;;;;;17.31;63.10;100323.47;4995485;28;97219;-76
2023/06/15 00:31:09;;;;;;;23.77;22.00;;;;;;;17.29;63.19;100325.38;5014042;28;96930;-76
2023/06/15 00:33:35;;;;;;;24.00;22.30;;;;;;;17.27;63.11;100313.13;5013039;28;98893;-76
2023/06/15 00:36:00;;;;;;;23.90;21.80;;;;;;;17.33;63.01;100320.72;5013768;28;98733;-76
2023/06/15 00:38:26;;;;;;;24.63;22.63;;;;;;;17.34;62.95;100319.78;5010961;28;97279;-76
2023/06/15 00:40:51;;;;;;;24.55;22.45;;;;;;;17.37;62.91;100314.28;5013883;28;96815;-76
2023/06/15 00:43:19;;;;;;;24.35;22.23;;;;;;;17.31;63.02;100304.06;5012360;28;99154;-76
2023/06/15 00:45:44;;;;;;;23.80;21.92;;;;;;;17.29;63.29;100306.78;5013405;28;98700;-76
2023/06/15 00:48:10;;;;;;;24.27;22.13;;;;;;;17.32;63.21;100306.59;5013261;28;97362;-76
2023/06/15 00:50:38;;;;;;;23.50;21.70;;;;;;;17.34;63.06;100307.38;4993278;28;96961;-76
2023/06/15 00:53:06;;;;;;;23.83;21.83;;;;;;;17.33;63.21;100316.25;5013059;28;98653;-76
2023/06/15 00:55:32;;;;;;;22.98;21.25;;;;;;;17.37;63.04;100323.09;4995302;28;100286;-76
2023/06/15 00:57:58;;;;;;;24.65;22.65;;;;;;;17.33;63.28;100303.00;5013590;28;96801;-76
2023/06/15 01:00:27;;;;;;;23.88;21.95;;;;;;;17.39;63.09;100313.25;4992226;28;97341;-76
2023/06/15 01:02:56;;;;;;;24.05;22.23;;;;;;;17.41;63.21;100310.47;4995172;28;98572;-76
2023/06/15 01:05:22;;;;;;;23.83;22.02;;;;;;;17.42;63.43;100317.47;4979032;28;99730;-76
2023/06/15 01:07:52;;;;;;;24.45;22.65;;;;;;;17.40;63.47;100306.13;4994501;28;96815;-76
2023/06/15 01:10:20;;;;;;;24.50;22.65;;;;;;;17.38;63.34;100313.34;5013540;28;96855;-76
2023/06/15 01:12:50;;;;;;;24.77;22.77;;;;;;;17.39;63.56;100312.38;4995013;28;98695;-76
2023/06/15 01:15:16;;;;;;;25.20;22.88;;;;;;;17.42;63.44;100307.75;5019115;28;98473;-76
2023/06/15 01:17:44;;;;;;;24.13;22.33;;;;;;;17.38;63.52;100295.59;4985811;28;97200;-76
2023/06/15 01:20:21;;;;;;;25.45;23.25;;;;;;;17.46;63.20;100308.41;4995607;28;96763;-76
2023/06/15 01:23:25;;;;;;;25.63;23.17;;;;;;;17.44;63.37;100310.28;4994575;28;98733;-76
2023/06/15 01:26:07;;;;;;;24.77;22.98;;;;;;;17.45;63.39;100306.69;5013237;28;97123;-76
2023/06/15 01:28:35;;;;;;;24.90;22.85;;;;;;;17.39;63.40;100293.78;5012713;28;96661;-76
2023/06/15 01:31:01;;;;;;;26.52;24.05;;;;;;;17.44;63.42;100299.69;4995235;28;96900;-76
2023/06/15 01:33:28;;;;;;;25.95;23.65;;;;;;;17.44;63.47;100299.69;4990998;28;100177;-76
2023/06/15 01:35:54;;;;;;;24.65;22.38;;;;;;;17.46;63.37;100303.09;5012448;28;98214;-76
2023/06/15 01:38:23;;;;;;;25.50;23.30;;;;;;;17.47;63.10;100298.63;5012406;28;96757;-76
2023/06/15 01:40:50;;;;;;;24.60;22.70;;;;;;;17.41;63.23;100290.09;4981775;28;96663;-76
2023/06/15 01:43:20;;;;;;;24.33;22.23;;;;;;;17.41;63.26;100299.88;4994131;28;98989;-76
2023/06/15 01:45:46;;;;;;;26.17;24.08;;;;;;;17.45;63.30;100303.19;4994407;28;100303;-76
2023/06/15 01:48:13;;;;;;;26.80;24.27;;;;;;;17.41;63.16;100303.38;4994749;28;97473;-76
2023/06/15 01:50:40;;;;;;;25.80;23.65;;;;;;;17.39;63.18;100297.34;5012889;28;97017;-76
2023/06/15 01:53:06;;;;;;;24.40;22.48;;;;;;;17.41;63.11;100305.19;4994135;28;98914;-76
2023/06/15 01:55:32;;;;;;;24.38;22.33;;;;;;;17.41;62.78;100306.03;4977436;28;100441;-76
2023/06/15 01:57:58;;;;;;;25.65;23.52;;;;;;;17.41;63.27;100307.81;4993997;28;96894;-76
2023/06/15 02:00:25;;;;;;;25.65;23.42;;;;;;;17.41;63.05;100305.19;5012916;28;96789;-77
2023/06/15 02:02:50;;;;;;;25.85;23.33;;;;;;;17.39;63.20;100305.28;5011819;28;98942;-76
2023/06/15 02:05:17;;;;;;;26.35;23.92;;;;;;;17.37;63.08;100293.91;4994178;28;100142;-76
2023/06/15 02:07:42;;;;;;;24.23;22.42;;;;;;;17.41;63.21;100300.72;4994023;28;96917;-76
2023/06/15 02:10:08;;;;;;;24.55;22.52;;;;;;;17.39;63.24;100305.28;5012830;28;96928;-76
2023/06/15 02:12:34;;;;;;;25.20;23.10;;;;;;;17.41;62.87;100306.03;4993549;28;100560;-76
2023/06/15 02:15:02;;;;;;;26.60;24.50;;;;;;;17.41;62.98;100307.81;4994065;28;100130;-76
2023/06/15 02:17:32;;;;;;;23.88;21.85;;;;;;;17.36;62.95;100300.16;4993977;28;97025;-76
2023/06/15 02:19:58;;;;;;;24.80;22.77;;;;;;;17.36;62.75;100307.25;5012388;28;97016;-76
2023/06/15 02:22:23;;;;;;;25.90;23.70;;;;;;;17.34;62.81;100298.56;5011269;28;98972;-76
2023/06/15 02:24:49;;;;;;;27.27;24.90;;;;;;;17.34;62.94;100296.75;5011636;28;98516;-76
2023/06/15 02:27:15;;;;;;;24.70;22.65;;;;;;;17.32;62.64;100295.16;5012139;28;96732;-76
2023/06/15 02:29:41;;;;;;;25.27;23.25;;;;;;;17.35;62.88;100301.09;5011807;28;96831;-76
2023/06/15 02:32:07;;;;;;;25.77;23.58;;;;;;;17.33;62.97;100303.00;5012221;28;97463;-76
2023/06/15 02:34:32;;;;;;;24.52;22.52;;;;;;;17.31;62.68;100299.59;5011137;28;98228;-76
2023/06/15 02:36:58;;;;;;;25.58;23.38;;;;;;;17.30;63.10;100295.22;5012399;28;97112;-76
2023/06/15 02:39:24;;;;;;;24.63;22.52;;;;;;;17.33;62.77;100303.00;4993988;28;97620;-76
2023/06/15 02:41:50;;;;;;;25.30;22.98;;;;;;;17.29;63.00;100301.50;5011128;28;98892;-76
2023/06/15 02:44:15;;;;;;;25.67;23.27;;;;;;;17.34;62.80;100310.03;4993145;28;100244;-76
2023/06/15 02:46:42;;;;;;;25.42;23.20;;;;;;;17.33;63.05;100302.16;4993213;28;96805;-76
2023/06/15 02:49:08;;;;;;;25.40;23.10;;;;;;;17.33;63.17;100315.41;4993751;28;96809;-76
2023/06/15 02:51:35;;;;;;;24.00;22.00;;;;;;;17.29;63.18;100296.19;5011427;28;98684;-76
2023/06/15 02:54:01;;;;;;;25.27;23.17;;;;;;;17.35;62.94;100309.06;4992530;28;100210;-76
2023/06/15 02:56:29;;;;;;;25.25;23.00;;;;;;;17.34;62.80;100307.38;4994272;28;97738;-76
2023/06/15 02:58:57;;;;;;;24.73;22.63;;;;;;;17.30;63.08;100302.34;4977231;28;96984;-76
2023/06/15 03:01:39;;;;;;;26.27;23.45;;;;;;;17.34;63.09;100320.63;4993419;28;100344;-75
2023/06/15 03:04:14;;;;;;;25.95;23.75;;;;;;;17.36;62.69;100320.53;4993382;28;100311;-76
2023/06/15 03:06:43;;;;;;;26.58;24.30;;;;;;;17.33;62.97;100315.41;4993473;28;98055;-76
2023/06/15 03:09:13;;;;;;;25.85;23.70;;;;;;;17.30;63.19;100318.25;4993504;28;97096;-76
2023/06/15 03:11:39;;;;;;;26.63;24.13;;;;;;;17.30;63.27;100315.59;4992950;28;99348;-76
2023/06/15 03:14:05;;;;;;;26.88;24.08;;;;;;;17.22;63.41;100308.13;4992864;28;100093;-76
2023/06/15 03:16:46;;;;;;;27.20;24.65;;;;;;;17.23;63.73;100311.63;4993764;28;97618;-76
2023/06/15 03:19:15;;;;;;;25.70;23.35;;;;;;;17.22;63.53;100308.13;4993234;28;96973;-76
2023/06/15 03:21:41;;;;;;;25.27;23.25;;;;;;;17.27;63.45;100311.34;4976639;28;100504;-76
2023/06/15 03:24:10;;;;;;;25.10;22.90;;;;;;;17.26;63.58;100309.63;4992668;28;100128;-76
2023/06/15 03:26:38;;;;;;;25.10;23.10;;;;;;;17.28;63.26;100307.75;5010081;28;96908;-76
2023/06/15 03:29:04;;;;;;;25.50;23.55;;;;;;;17.29;63.27;100313.91;4993432;28;97273;-76
2023/06/15 03:31:33;;;;;;;25.38;22.92;;;;;;;17.34;63.51;100315.31;5011192;28;98320;-76
2023/06/15 03:34:00;;;;;;;27.05;24.38;;;;;;;17.32;63.60;100311.91;4992336;28;100511;-76
2023/06/15 03:36:30;;;;;;;25.42;23.27;;;;;;;17.35;63.27;100311.72;5010189;28;97127;-76
2023/06/15 03:38:57;;;;;;;25.55;23.45;;;;;;;17.35;63.65;100305.56;4993062;28;96897;-76
2023/06/15 03:41:24;;;;;;;25.48;23.20;;;;;;;17.35;63.44;100306.41;4993181;28;100449;-76
2023/06/15 03:43:49;;;;;;;25.15;22.65;;;;;;;17.39;63.44;100304.41;4978600;28;100397;-76
2023/06/15 03:46:16;;;;;;;24.45;22.10;;;;;;;17.41;63.19;100310.47;4993100;28;96789;-76
2023/06/15 03:48:42;;;;;;;25.27;23.05;;;;;;;17.43;63.56;100311.25;4992732;28;96850;-76
2023/06/15 03:51:08;;;;;;;24.40;22.45;;;;;;;17.47;63.42;100311.91;4993165;28;100633;-76
2023/06/15 03:53:34;;;;;;;27.38;24.75;;;;;;;17.50;63.27;100307.25;4978057;28;99948;-76
2023/06/15 03:55:59;;;;;;;25.58;23.20;;;;;;;17.53;62.93;100312.34;5014907;28;97049;-76
2023/06/15 03:58:25;;;;;;;25.52;22.13;;;;;;;17.62;62.75;100324.19;5014304;28;96913;-76
2023/06/15 04:00:52;;;;;;;29.08;26.08;;;;;;;17.69;62.64;100328.19;4995962;28;101111;-76
2023/06/15 04:03:18;;;;;;;26.58;24.38;;;;;;;17.78;62.71;100326.78;5012493;28;99408;-76
2023/06/15 04:05:45;;;;;;;27.23;24.65;;;;;;;17.84;62.40;100321.06;5014391;28;96738;-76
2023/06/15 04:08:11;;;;;;;27.63;25.15;;;;;;;18.02;62.17;100327.00;5009492;28;96856;-76
2023/06/15 04:10:36;;;;;;;27.00;24.38;;;;;;;18.14;61.53;100320.03;5013846;28;99003;-76
2023/06/15 04:13:03;;;;;;;27.88;25.58;;;;;;;18.24;61.24;100323.81;5017655;28;98684;-76
2023/06/15 04:15:28;;;;;;;27.67;25.25;;;;;;;18.26;61.29;100324.53;5005681;28;96857;-76
2023/06/15 04:18:00;;;;;;;28.55;25.95;;;;;;;18.29;61.14;100314.53;5009895;28;96878;-76
2023/06/15 04:20:28;;;;;;;27.55;24.88;;;;;;;18.42;60.93;100319.06;4995660;28;100564;-76
2023/06/15 04:22:56;;;;;;;30.08;25.65;;;;;;;18.51;60.77;100305.16;5013370;28;97717;-76
2023/06/15 04:25:21;;;;;;;29.23;26.38;;;;;;;18.51;60.49;100313.97;4995011;28;96917;-76
2023/06/15 04:27:49;;;;;;;28.40;25.83;;;;;;;18.33;60.99;100307.25;5013353;28;96889;-76
2023/06/15 04:30:18;;;;;;;26.80;24.42;;;;;;;18.25;60.91;100298.94;4996213;28;100128;-76
2023/06/15 04:32:44;;;;;;;28.10;25.25;;;;;;;18.30;60.98;100313.59;5007943;28;100158;-76
2023/06/15 04:35:16;;;;;;;31.15;25.58;;;;;;;18.37;61.00;100315.84;4996758;28;97161;-76
2023/06/15 04:37:42;;;;;;;;;;;;;;;18.42;60.94;100311.94;4995764;28;97196;-76
2023/06/15 04:40:10;;;;;;;30.73;23.95;;;;;;;18.51;60.67;100308.66;4995820;28;100181;-76
2023/06/15 04:42:37;;;;;;;27.40;24.80;;;;;;;18.66;60.47;100305.94;4978793;28;99740;-76
2023/06/15 04:45:07;;;;;;;28.02;25.13;;;;;;;18.69;60.30;100308.38;5009310;28;97255;-76
2023/06/15 04:47:32;;;;;;;28.58;25.80;;;;;;;18.75;60.16;100311.50;4986733;28;96963;-76
2023/06/15 04:49:58;;;;;;;26.33;23.63;;;;;;;18.77;59.97;100319.38;5005041;28;100359;-76
2023/06/15 04:52:24;;;;;;;27.77;24.77;;;;;;;18.73;60.01;100301.88;4995140;28;100305;-76
2023/06/15 04:54:50;;;;;;;27.55;24.48;;;;;;;18.74;60.12;100314.28;4995274;28;96790;-76
2023/06/15 04:57:16;;;;;;;31.13;25.48;;;;;;;18.75;60.47;100322.13;4995359;28;97169;-76
2023/06/15 04:59:42;;;;;;;28.58;24.38;;;;;;;18.74;60.34;100309.78;4995020;28;100024;-76
2023/06/15 05:02:08;;;;;;;27.02;24.38;;;;;;;18.67;60.28;100305.81;5013797;28;98717;-76
2023/06/15 05:04:36;;;;;;;26.02;23.95;;;;;;;18.71;60.35;100317.94;4993668;28;97168;-76
2023/06/15 05:07:01;;;;;;;27.27;25.20;;;;;;;18.69;60.59;100329.66;5024868;28;97289;-76
2023/06/15 05:09:29;;;;;;;28.05;25.58;;;;;;;18.61;61.02;100329.31;4997370;28;100911;-76
2023/06/15 05:11:56;;;;;;;27.45;24.98;;;;;;;18.50;61.09;100324.69;5000584;28;100622;-76
2023/06/15 05:14:26;;;;;;;28.08;25.15;;;;;;;18.47;61.28;100333.75;4980193;28;96825;-76
2023/06/15 05:16:53;;;;;;;27.35;25.08;;;;;;;18.46;61.75;100337.34;4978495;28;96896;-76
2023/06/15 05:19:20;;;;;;;27.77;24.83;;;;;;;18.45;61.89;100338.31;5012729;28;97573;-77
2023/06/15 05:21:49;;;;;;;26.98;24.38;;;;;;;18.43;61.72;100337.56;4987034;28;100440;-77
2023/06/15 05:24:15;;;;;;;27.15;24.83;;;;;;;18.42;61.94;100340.31;5019590;28;96657;-76
2023/06/15 05:26:40;;;;;;;25.38;23.27;;;;;;;18.46;62.12;100347.13;5012900;28;96764;-76
2023/06/15 05:29:09;;;;;;;28.10;25.33;;;;;;;18.46;62.48;100350.63;5007566;28;100678;-76
2023/06/15 05:31:35;;;;;;;27.20;24.67;;;;;;;18.50;62.29;100345.97;5001585;28;100516;-76
2023/06/15 05:34:00;;;;;;;26.77;24.05;;;;;;;18.60;61.97;100354.19;4994129;28;98090;-76
2023/06/15 05:36:30;;;;;;;35.25;25.77;;;;;;;18.66;61.92;100357.28;4994500;28;96896;-76
2023/06/15 05:38:56;;;;;;;26.73;24.20;;;;;;;18.75;61.49;100354.03;5005206;28;100517;-76
2023/06/15 05:41:22;;;;;;;26.85;24.42;;;;;;;18.83;61.59;100356.19;5000664;28;100297;-75
2023/06/15 05:43:48;;;;;;;29.83;24.85;;;;;;;18.91;61.41;100353.84;4993667;28;96737;-75
2023/06/15 05:46:15;;;;;;;27.02;24.38;;;;;;;19.12;61.10;100350.69;5001215;28;96925;-76
2023/06/15 05:48:40;;;;;;;27.00;24.42;;;;;;;19.45;60.19;100348.31;4995868;28;100421;-76
2023/06/15 05:51:06;;;;;;;26.52;24.00;;;;;;;20.05;58.62;100351.19;4994386;28;100070;-76
2023/06/15 05:53:32;;;;;;;26.85;24.48;;;;;;;20.91;56.90;100352.78;4994037;28;96954;-76
2023/06/15 05:55:58;;;;;;;27.38;24.67;;;;;;;21.78;54.91;100347.78;4994595;28;97367;-76
2023/06/15 05:58:23;;;;;;;27.00;24.30;;;;;;;21.57;55.09;100356.53;5002581;28;100677;-76
2023/06/15 06:00:49;;;;;;;27.40;24.90;;;;;;;21.28;56.02;100358.78;5012087;28;98491;-76
2023/06/15 06:03:15;;;;;;;25.55;23.30;;;;;;;20.99;56.28;100359.22;5005187;28;96781;-76
2023/06/15 06:05:46;;;;;;;;;;;;;;;20.75;56.85;100358.44;4993129;28;96909;-75
2023/06/15 06:08:11;;;;;;;29.35;25.42;;;;;;;20.55;57.38;100355.47;5012343;28;97886;-76
2023/06/15 06:10:37;;;;;;;27.48;24.77;;;;;;;20.44;57.62;100363.38;4994162;28;100236;-76
2023/06/15 06:13:18;;;;;;;27.75;24.58;;;;;;;20.37;57.61;100356.81;4993796;28;97032;-76
2023/06/15 06:15:44;;;;;;;27.90;25.25;;;;;;;20.30;58.08;100358.22;4993101;28;96869;-76
2023/06/15 06:18:09;;;;;;;27.85;25.27;;;;;;;20.28;58.00;100361.00;5022044;28;98786;-76
2023/06/15 06:20:36;;;;;;;26.30;23.92;;;;;;;20.25;58.31;100357.72;5011729;28;99930;-76
2023/06/15 06:23:03;;;;;;;26.73;24.23;;;;;;;20.27;58.07;100363.78;5011691;28;97096;-76
2023/06/15 06:25:29;;;;;;;28.13;25.25;;;;;;;20.29;58.19;100369.84;4977241;28;96963;-76
2023/06/15 06:27:56;;;;;;;33.33;25.10;;;;;;;20.38;58.06;100357.66;4992760;28;100597;-76
2023/06/15 06:30:21;;;;;;;27.08;24.17;;;;;;;20.64;57.76;100366.41;5011968;28;98353;-76
2023/06/15 06:32:47;;;;;;;29.08;26.20;;;;;;;21.82;55.12;100357.25;5025493;28;96725;-76
2023/06/15 06:35:12;;;;;;;28.13;25.30;;;;;;;27.20;44.26;100356.25;5012188;28;96925;-76
2023/06/15 06:37:38;;;;;;;28.30;25.90;;;;;;;29.91;39.11;100350.09;5010827;28;99190;-76
2023/06/15 06:40:04;;;;;;;30.95;26.38;;;;;;;29.67;38.93;100347.50;5018272;28;98291;-74
2023/06/15 06:42:30;;;;;;;29.13;26.45;;;;;;;30.62;37.02;100350.81;5019047;28;97153;-74
2023/06/15 06:44:56;;;;;;;25.25;22.95;;;;;;;30.80;36.79;100346.97;4998545;28;96800;-75
2023/06/15 06:47:21;;;;;;;23.00;21.00;;;;;;;34.17;32.04;100336.94;5029988;28;98922;-66
2023/06/15 06:49:47;;;;;;;27.88;24.90;;;;;;;37.88;27.31;100335.28;5015350;28;98333;-66
2023/06/15 06:52:12;;;;;;;28.65;25.27;;;;;;;40.33;24.72;100333.81;5011291;28;97086;-66
2023/06/15 06:54:38;;;;;;;33.85;31.45;;;;;;;35.40;29.01;100343.88;5013999;28;96975;-66
2023/06/15 06:57:04;;;;;;;28.92;26.70;;;;;;;37.43;26.88;100340.22;5011372;28;98931;-68
2023/06/15 06:59:30;;;;;;;28.02;25.70;;;;;;;38.26;25.97;100329.47;5017434;28;98285;-67
2023/06/15 07:01:56;;;;;;;28.60;26.00;;;;;;;39.88;23.59;100335.44;5011612;28;96774;-66
2023/06/15 07:04:21;;;;;;;26.55;24.45;;;;;;;42.75;21.08;100315.41;5017974;28;98937;-67
2023/06/15 07:06:47;;;;;;;24.23;22.25;;;;;;;41.74;22.25;100319.66;5013821;28;98493;-69
2023/06/15 07:09:12;;;;;;;24.92;23.10;;;;;;;45.78;18.90;100317.38;5010959;28;98962;-68
2023/06/15 07:11:38;;;;;;;23.73;21.25;;;;;;;47.49;17.50;100310.84;5013103;28;97745;-67
2023/06/15 07:14:03;;;;;;;21.65;19.95;;;;;;;48.60;16.47;100306.66;5010873;28;97265;-67
2023/06/15 07:16:32;;;;;;;24.10;21.90;;;;;;;49.00;15.73;100307.03;5019830;28;98750;-67
2023/06/15 07:18:58;;;;;;;23.52;21.08;;;;;;;48.57;16.02;100310.06;5015363;28;98515;-67
2023/06/15 07:21:24;;;;;;;21.52;19.55;;;;;;;46.79;17.33;100309.41;5015305;28;96984;-67
2023/06/15 07:23:49;;;;;;;23.15;21.23;;;;;;;46.90;16.53;100294.28;5022232;28;96785;-67
2023/06/15 07:26:15;;;;;;;22.60;20.88;;;;;;;46.03;17.30;100303.38;5013506;28;98947;-67
2023/06/15 07:28:40;;;;;;;21.98;19.98;;;;;;;40.74;21.05;100310.59;5016336;28;97021;-66
2023/06/15 07:31:06;;;;;;;24.20;22.20;;;;;;;36.21;25.82;100308.66;5026436;28;96736;-66
2023/06/15 07:33:31;;;;;;;25.30;23.08;;;;;;;33.37;29.05;100311.28;5025040;28;96729;-66
2023/06/15 07:35:57;;;;;;;25.55;23.15;;;;;;;31.58;31.74;100313.13;5016689;27;98736;-66
2023/06/15 07:38:23;;;;;;;23.20;21.33;;;;;;;30.05;34.26;100324.16;5021294;28;98387;-66
2023/06/15 07:40:48;;;;;;;24.17;22.38;;;;;;;29.07;35.89;100328.06;5029298;28;96687;-66
2023/06/15 07:43:14;;;;;;;25.27;23.20;;;;;;;28.20;37.72;100322.28;5024559;28;97295;-75
2023/06/15 07:45:41;;;;;;;24.60;22.55;;;;;;;27.49;38.70;100323.56;5019073;28;99095;-74
2023/06/15 07:48:07;;;;;;;23.75;21.85;;;;;;;26.98;39.87;100327.97;5013975;28;98658;-77
2023/06/15 07:50:33;;;;;;;25.42;23.48;;;;;;;26.61;41.20;100325.50;5018672;28;96760;-76
2023/06/15 07:52:58;;;;;;;24.98;23.00;;;;;;;26.28;41.89;100332.41;5013890;28;96809;-76
2023/06/15 07:55:24;;;;;;;23.90;21.38;;;;;;;25.96;42.23;100334.59;5014765;28;98568;-76
2023/06/15 07:57:50;;;;;;;24.17;21.80;;;;;;;25.63;42.89;100343.28;5022770;28;98367;-76
2023/06/15 08:00:16;;;;;;;25.25;23.23;;;;;;;25.20;43.91;100334.81;5014489;28;96739;-77
2023/06/15 08:02:42;;;;;;;25.05;23.05;;;;;;;24.87;44.58;100329.91;5017860;28;96929;-76
2023/06/15 08:05:08;;;;;;;22.85;21.15;;;;;;;24.71;45.08;100333.19;5010597;28;98741;-77
2023/06/15 08:07:33;;;;;;;24.33;22.42;;;;;;;24.55;45.60;100339.09;5018182;28;98755;-78
2023/06/15 08:09:59;;;;;;;26.08;23.77;;;;;;;24.27;46.54;100335.44;5024492;28;96714;-78
2023/06/15 08:12:25;;;;;;;27.05;24.60;;;;;;;24.00;48.01;100334.25;5026186;28;97033;-78
2023/06/15 08:14:51;;;;;;;24.58;22.48;;;;;;;23.82;48.49;100342.09;5029341;28;98843;-78
2023/06/15 08:17:16;;;;;;;25.23;22.95;;;;;;;23.60;48.97;100339.63;5015962;28;98742;-79
2023/06/15 08:19:42;;;;;;;24.42;22.00;;;;;;;23.42;49.22;100326.88;5018097;28;97322;-78
2023/06/15 08:22:07;;;;;;;23.98;22.17;;;;;;;23.41;49.54;100349.25;4996506;28;96985;-78
2023/06/15 08:24:33;;;;;;;24.33;22.08;;;;;;;23.33;49.54;100346.41;5012634;28;101402;-78
2023/06/15 08:27:00;;;;;;;25.73;23.23;;;;;;;23.31;49.88;100345.69;5027081;28;98538;-76
2023/06/15 08:29:25;;;;;;;25.23;22.90;;;;;;;23.39;50.38;100350.41;4981825;28;97093;-77
2023/06/15 08:31:53;;;;;;;24.63;22.30;;;;;;;23.52;50.15;100342.13;4995006;28;96910;-78
2023/06/15 08:34:19;;;;;;;23.83;21.58;;;;;;;23.63;49.59;100344.69;5016675;28;98807;-78
2023/06/15 08:36:45;;;;;;;23.80;21.73;;;;;;;23.80;48.71;100352.13;5016570;28;98402;-78
2023/06/15 08:39:10;;;;;;;23.50;21.70;;;;;;;23.93;48.14;100351.88;5024399;27;97343;-78
2023/06/15 08:41:40;;;;;;;23.55;21.95;;;;;;;24.18;47.26;100350.50;5019232;28;97179;-77
2023/06/15 08:44:06;;;;;;;23.00;21.42;;;;;;;24.57;45.91;100345.19;5015732;28;98738;-77
2023/06/15 08:46:32;;;;;;;21.60;19.90;;;;;;;24.95;44.96;100336.25;5009806;28;98325;-77
2023/06/15 08:48:59;;;;;;;21.88;20.23;;;;;;;25.30;43.72;100340.13;5009810;28;97288;-77
2023/06/15 08:51:25;;;;;;;23.17;21.30;;;;;;;25.59;42.91;100339.16;5020400;28;97524;-77
2023/06/15 08:53:54;;;;;;;22.90;20.67;;;;;;;25.82;42.49;100336.94;5019972;28;99717;-77
2023/06/15 08:56:20;;;;;;;22.65;20.80;;;;;;;25.64;42.60;100334.19;5008346;28;99086;-77
2023/06/15 08:58:49;;;;;;;22.98;21.00;;;;;;;25.34;43.26;100338.88;5015630;28;97222;-77
2023/06/15 09:01:25;;;;;;;24.58;22.48;;;;;;;25.10;43.59;100339.31;4993736;28;96835;-77
2023/06/15 09:03:53;;;;;;;22.88;21.17;;;;;;;25.06;43.77;100337.91;5010037;28;98418;-77
2023/06/15 09:06:19;;;;;;;23.23;21.27;;;;;;;25.08;43.88;100339.47;5009994;28;98326;-77
2023/06/15 09:08:46;;;;;;;25.30;22.75;;;;;;;24.90;44.46;100329.59;4999576;28;97420;-77
2023/06/15 09:11:12;;;;;;;24.02;21.88;;;;;;;24.87;44.75;100332.59;4995101;28;99496;-78
2023/06/15 09:13:37;;;;;;;23.75;21.48;;;;;;;24.75;44.83;100332.72;5009067;28;98856;-77
2023/06/15 09:16:05;;;;;;;22.98;20.98;;;;;;;24.62;44.89;100345.63;5014905;28;98816;-76
2023/06/15 09:18:42;;;;;;;22.73;21.02;;;;;;;24.45;45.25;100343.66;4988518;28;96965;-78
2023/06/15 09:21:11;;;;;;;23.75;21.90;;;;;;;24.24;45.37;100336.53;5011206;28;97195;-77
2023/06/15 09:23:40;;;;;;;23.30;21.45;;;;;;;24.23;45.59;100337.53;5008585;28;99207;-75
2023/06/15 09:26:06;;;;;;;23.98;21.67;;;;;;;24.27;45.23;100340.78;5006231;28;98690;-77
2023/06/15 09:28:31;;;;;;;23.55;21.25;;;;;;;24.25;45.34;100334.72;5014496;28;96847;-77
2023/06/15 09:30:57;;;;;;;25.05;22.88;;;;;;;24.27;45.16;100341.63;5007280;28;97619;-77
2023/06/15 09:33:22;;;;;;;23.98;22.20;;;;;;;24.24;45.02;100341.91;5003734;28;97611;-77
2023/06/15 09:36:02;;;;;;;23.75;21.85;;;;;;;24.16;44.46;100339.91;5012115;27;98239;-76
2023/06/15 09:38:30;;;;;;;22.25;20.65;;;;;;;24.12;44.66;100349.22;5011671;28;96827;-75
2023/06/15 09:40:55;;;;;;;23.30;21.63;;;;;;;24.26;44.03;100342.63;5012043;28;96848;-78
2023/06/15 09:43:21;;;;;;;21.83;19.80;;;;;;;24.43;43.46;100335.72;4998341;28;98578;-75
2023/06/15 09:45:50;;;;;;;20.80;19.08;;;;;;;24.97;42.94;100336.09;4996096;28;98469;-76
2023/06/15 09:48:16;;;;;;;20.70;19.27;;;;;;;25.61;42.17;100329.13;5011002;28;97193;-76
2023/06/15 09:50:41;;;;;;;21.48;19.95;;;;;;;26.28;41.04;100335.09;5006321;28;96933;-77
2023/06/15 09:53:10;;;;;;;20.67;19.30;;;;;;;26.84;39.97;100328.53;5008957;28;99255;-71
2023/06/15 09:55:37;;;;;;;22.52;20.83;;;;;;;26.97;40.02;100318.22;5002892;28;98283;-73
2023/06/15 09:58:03;;;;;;;21.55;19.70;;;;;;;26.97;40.00;100322.75;5012035;28;97135;-71
2023/06/15 10:00:29;;;;;;;21.98;19.67;;;;;;;26.87;39.99;100320.13;5001118;28;96983;-71
2023/06/15 10:02:56;;;;;;;22.08;20.48;;;;;;;26.92;39.78;100317.00;5007387;28;99506;-70
2023/06/15 10:05:29;;;;;;;21.08;19.77;;;;;;;26.74;40.01;100314.34;5024656;28;98365;-70
2023/06/15 10:07:55;;;;;;;22.63;20.92;;;;;;;26.61;39.71;100306.66;5011274;28;97659;-71
2023/06/15 10:10:20;;;;;;;21.23;19.48;;;;;;;26.64;39.93;100319.81;4973643;28;96909;-71
2023/06/15 10:12:51;;;;;;;22.33;20.63;;;;;;;26.60;39.56;100316.59;4991532;28;99039;-70
2023/06/15 10:15:20;;;;;;;21.65;20.05;;;;;;;26.50;39.38;100318.53;4994183;28;98283;-71
2023/06/15 10:17:48;;;;;;;20.83;19.20;;;;;;;26.64;39.27;100317.94;4978142;28;96816;-71
2023/06/15 10:20:16;;;;;;;21.85;20.25;;;;;;;26.84;38.89;100318.59;5010678;28;96905;-71
2023/06/15 10:23:00;;;;;;;20.63;19.08;;;;;;;26.98;38.52;100319.03;5010547;28;98781;-70
2023/06/15 10:25:27;;;;;;;21.27;19.67;;;;;;;27.00;38.07;100317.88;5007767;28;98902;-71
2023/06/15 10:27:53;;;;;;;21.05;19.52;;;;;;;27.12;38.19;100315.78;4992950;28;97041;-71
2023/06/15 10:30:39;;;;;;;22.02;20.13;;;;;;;27.17;37.53;100307.22;5003908;28;97193;-71
2023/06/15 10:33:33;;;;;;;19.90;18.58;;;;;;;27.17;37.37;100308.09;4992138;28;98681;-71
2023/06/15 10:36:05;;;;;;;20.15;18.85;;;;;;;27.22;37.46;100308.44;4989852;28;98729;-71
2023/06/15 10:38:47;;;;;;;21.40;19.75;;;;;;;27.10;38.07;100305.13;5001418;28;96803;-71
2023/06/15 10:41:13;;;;;;;20.60;19.20;;;;;;;27.08;38.39;100307.16;4992134;28;96838;-72
2023/06/15 10:43:38;;;;;;;20.60;18.88;;;;;;;27.13;38.01;100303.13;5006981;28;98799;-69
2023/06/15 10:46:06;;;;;;;21.35;19.85;;;;;;;27.22;37.69;100299.50;4979822;28;98350;-69
2023/06/15 10:48:38;;;;;;;19.77;18.33;;;;;;;27.38;37.00;100296.91;5000103;28;96804;-69
2023/06/15 10:51:08;;;;;;;20.85;19.35;;;;;;;27.48;36.83;100302.16;5009447;28;96965;-69
2023/06/15 10:53:36;;;;;;;21.63;20.33;;;;;;;27.59;36.33;100301.88;5004556;28;99106;-69
2023/06/15 10:56:09;;;;;;;21.15;19.75;;;;;;;27.65;35.39;100300.38;4993699;28;98356;-70
2023/06/15 10:58:54;;;;;;;19.98;18.58;;;;;;;27.86;36.09;100302.66;5000050;28;97769;-70
2023/06/15 11:01:27;;;;;;;20.80;19.40;;;;;;;27.91;36.15;100293.06;4996795;28;97123;-70
2023/06/15 11:03:56;;;;;;;21.77;20.15;;;;;;;27.94;35.76;100297.28;4999023;28;99123;-70
2023/06/15 11:06:31;;;;;;;21.00;19.70;;;;;;;27.71;34.65;100295.16;5006867;28;98243;-70
2023/06/15 11:09:07;;;;;;;20.75;19.42;;;;;;;27.67;35.71;100284.91;5007777;28;97128;-70
2023/06/15 11:11:36;;;;;;;20.65;19.20;;;;;;;27.46;35.39;100294.25;5006330;28;97267;-70